sensor_id;sensor_type;location;lat;lon;timestamp;pressure;altitude;pressure_sealevel;temperature;humidity
48774;BME280;34576;0.000;0.000;2023-05-10T00:06:23;96181.75;;;19.56;69.78
48774;BME280;34576;0.000;0.000;2023-05-10T00:13:23;96175.34;;;19.57;69.88
48774;BME280;34576;0.000;0.000;2023-05-10T00:20:24;96177.25;;;19.57;69.83
48774;BME280;34576;0.000;0.000;2023-05-10T00:27:25;96182.56;;;19.57;69.78
48774;BME280;34576;0.000;0.000;2023-05-10T00:34:25;96182.84;;;19.55;69.94
48774;BME280;34576;0.000;0.000;2023-05-10T00:41:25;96175.34;;;19.57;69.76
48774;BME280;34576;0.000;0.000;2023-05-10T00:48:26;96175.66;;;19.56;69.85
48774;BME280;34576;0.000;0.000;2023-05-10T00:55:26;96175.94;;;19.54;69.81
48774;BME280;34576;0.000;0.000;2023-05-10T01:02:27;96178.00;;;19.57;69.81
48774;BME280;34576;0.000;0.000;2023-05-10T01:09:27;96176.25;;;19.53;69.82
48774;BME280;34576;0.000;0.000;2023-05-10T01:16:27;96188.47;;;19.54;70.23
48774;BME280;34576;0.000;0.000;2023-05-10T01:23:49;96185.03;;;19.53;69.89
48774;BME280;34576;0.000;0.000;2023-05-10T01:31:03;96186.09;;;19.52;70.01
48774;BME280;34576;0.000;0.000;2023-05-10T01:38:22;96191.44;;;19.52;69.91
48774;BME280;34576;0.000;0.000;2023-05-10T01:45:28;96188.69;;;19.57;69.93
48774;BME280;34576;0.000;0.000;2023-05-10T01:52:31;96206.38;;;19.53;69.89
48774;BME280;34576;0.000;0.000;2023-05-10T01:59:33;96205.38;;;19.63;69.85
48774;BME280;34576;0.000;0.000;2023-05-10T02:06:39;96213.19;;;19.59;69.66
48774;BME280;34576;0.000;0.000;2023-05-10T02:13:41;96211.63;;;19.58;69.98
48774;BME280;34576;0.000;0.000;2023-05-10T02:20:45;96220.69;;;19.57;69.93
48774;BME280;34576;0.000;0.000;2023-05-10T02:27:46;96227.63;;;19.58;70.20
48774;BME280;34576;0.000;0.000;2023-05-10T02:34:47;96223.84;;;19.59;69.78
48774;BME280;34576;0.000;0.000;2023-05-10T02:41:51;96231.38;;;19.57;69.77
48774;BME280;34576;0.000;0.000;2023-05-10T02:48:53;96232.97;;;19.58;69.99
48774;BME280;34576;0.000;0.000;2023-05-10T02:55:53;96226.03;;;19.57;69.67
48774;BME280;34576;0.000;0.000;2023-05-10T03:02:57;96235.13;;;19.56;69.83
48774;BME280;34576;0.000;0.000;2023-05-10T03:09:58;96228.19;;;19.55;70.13
48774;BME280;34576;0.000;0.000;2023-05-10T03:24:05;96234.81;;;19.58;70.01
48774;BME280;34576;0.000;0.000;2023-05-10T03:31:07;96243.72;;;19.53;70.00
48774;BME280;34576;0.000;0.000;2023-05-10T03:38:08;96250.94;;;19.53;70.19
48774;BME280;34576;0.000;0.000;2023-05-10T03:45:09;96244.50;;;19.54;70.57
48774;BME280;34576;0.000;0.000;2023-05-10T03:52:09;96243.31;;;19.74;70.15
48774;BME280;34576;0.000;0.000;2023-05-10T03:59:10;96244.44;;;19.73;70.50
48774;BME280;34576;0.000;0.000;2023-05-10T04:06:10;96240.94;;;19.72;70.98
48774;BME280;34576;0.000;0.000;2023-05-10T04:13:11;96237.97;;;19.74;70.72
48774;BME280;34576;0.000;0.000;2023-05-10T04:20:12;96237.72;;;19.75;71.02
48774;BME280;34576;0.000;0.000;2023-05-10T04:27:13;96249.56;;;19.69;70.31
48774;BME280;34576;0.000;0.000;2023-05-10T04:34:14;96243.81;;;19.76;70.51
48774;BME280;34576;0.000;0.000;2023-05-10T04:41:14;96246.16;;;16.36;69.91
48774;BME280;34576;0.000;0.000;2023-05-10T04:48:15;96258.69;;;16.26;69.68
48774;BME280;34576;0.000;0.000;2023-05-10T04:55:15;96265.94;;;16.60;68.51
48774;BME280;34576;0.000;0.000;2023-05-10T05:02:16;96259.84;;;18.63;66.33
48774;BME280;34576;0.000;0.000;2023-05-10T05:09:17;96268.81;;;18.86;66.28
48774;BME280;34576;0.000;0.000;2023-05-10T05:16:17;96273.53;;;18.94;66.73
48774;BME280;34576;0.000;0.000;2023-05-10T05:23:18;96274.53;;;18.99;66.98
48774;BME280;34576;0.000;0.000;2023-05-10T05:30:20;96280.34;;;19.01;67.33
48774;BME280;34576;0.000;0.000;2023-05-10T05:37:20;96285.59;;;19.06;67.44
48774;BME280;34576;0.000;0.000;2023-05-10T05:44:24;96293.59;;;19.06;67.58
48774;BME280;34576;0.000;0.000;2023-05-10T05:51:25;96294.91;;;19.08;67.56
48774;BME280;34576;0.000;0.000;2023-05-10T05:58:25;96294.09;;;19.08;67.78
48774;BME280;34576;0.000;0.000;2023-05-10T06:05:26;96306.34;;;19.09;67.69
48774;BME280;34576;0.000;0.000;2023-05-10T06:12:26;96312.75;;;19.08;67.67
48774;BME280;34576;0.000;0.000;2023-05-10T06:19:27;96323.13;;;19.09;67.83
48774;BME280;34576;0.000;0.000;2023-05-10T06:26:27;96330.81;;;19.11;67.76
48774;BME280;34576;0.000;0.000;2023-05-10T06:33:28;96325.22;;;19.12;67.80
48774;BME280;34576;0.000;0.000;2023-05-10T06:40:28;96326.00;;;19.13;67.80
48774;BME280;34576;0.000;0.000;2023-05-10T06:47:28;96334.78;;;19.13;67.72
48774;BME280;34576;0.000;0.000;2023-05-10T06:54:29;96335.31;;;19.16;67.78
48774;BME280;34576;0.000;0.000;2023-05-10T07:01:29;96335.81;;;19.18;67.71
48774;BME280;34576;0.000;0.000;2023-05-10T07:08:30;96344.09;;;19.16;67.80
48774;BME280;34576;0.000;0.000;2023-05-10T07:15:30;96344.88;;;19.17;67.67
48774;BME280;34576;0.000;0.000;2023-05-10T07:22:30;96336.88;;;19.17;67.72
48774;BME280;34576;0.000;0.000;2023-05-10T07:29:31;96351.00;;;19.17;67.68
48774;BME280;34576;0.000;0.000;2023-05-10T07:36:31;96359.50;;;19.19;67.59
48774;BME280;34576;0.000;0.000;2023-05-10T07:43:32;96360.88;;;19.17;67.67
48774;BME280;34576;0.000;0.000;2023-05-10T07:50:32;96372.06;;;19.19;67.58
48774;BME280;34576;0.000;0.000;2023-05-10T07:57:33;96365.91;;;19.18;67.68
48774;BME280;34576;0.000;0.000;2023-05-10T08:04:34;96361.88;;;19.21;67.50
48774;BME280;34576;0.000;0.000;2023-05-10T08:11:34;96373.84;;;19.23;67.46
48774;BME280;34576;0.000;0.000;2023-05-10T08:18:35;96369.28;;;19.24;67.45
48774;BME280;34576;0.000;0.000;2023-05-10T08:25:35;96370.59;;;19.26;67.33
48774;BME280;34576;0.000;0.000;2023-05-10T08:32:36;96371.59;;;19.30;67.26
48774;BME280;34576;0.000;0.000;2023-05-10T08:39:37;96368.06;;;19.35;67.04
48774;BME280;34576;0.000;0.000;2023-05-10T08:46:38;96361.94;;;19.35;67.11
48774;BME280;34576;0.000;0.000;2023-05-10T08:53:44;96364.00;;;19.38;67.16
48774;BME280;34576;0.000;0.000;2023-05-10T09:00:45;96363.13;;;19.42;66.80
48774;BME280;34576;0.000;0.000;2023-05-10T09:07:45;96369.47;;;19.46;66.67
48774;BME280;34576;0.000;0.000;2023-05-10T09:14:45;96357.94;;;19.51;66.73
48774;BME280;34576;0.000;0.000;2023-05-10T09:21:46;96369.41;;;19.52;66.65
48774;BME280;34576;0.000;0.000;2023-05-10T09:28:53;96380.94;;;19.47;66.71
48774;BME280;34576;0.000;0.000;2023-05-10T09:35:53;96387.28;;;19.51;66.74
48774;BME280;34576;0.000;0.000;2023-05-10T09:42:54;96393.78;;;19.45;66.87
48774;BME280;34576;0.000;0.000;2023-05-10T09:49:55;96399.03;;;19.50;66.94
48774;BME280;34576;0.000;0.000;2023-05-10T09:57:02;96396.16;;;19.46;66.99
48774;BME280;34576;0.000;0.000;2023-05-10T10:04:06;96397.44;;;19.49;66.88
48774;BME280;34576;0.000;0.000;2023-05-10T10:11:07;96404.84;;;19.52;66.88
48774;BME280;34576;0.000;0.000;2023-05-10T10:18:08;96401.34;;;19.57;66.70
48774;BME280;34576;0.000;0.000;2023-05-10T10:25:16;96404.28;;;19.55;66.79
48774;BME280;34576;0.000;0.000;2023-05-10T10:39:40;96407.94;;;19.59;66.89
48774;BME280;34576;0.000;0.000;2023-05-10T10:46:59;96409.47;;;19.65;66.59
48774;BME280;34576;0.000;0.000;2023-05-10T10:54:09;96412.03;;;19.71;66.37
48774;BME280;34576;0.000;0.000;2023-05-10T11:01:11;96402.06;;;19.76;66.38
48774;BME280;34576;0.000;0.000;2023-05-10T11:08:13;96399.09;;;19.78;66.40
48774;BME280;34576;0.000;0.000;2023-05-10T11:15:14;96401.22;;;19.81;66.33
48774;BME280;34576;0.000;0.000;2023-05-10T11:22:15;96403.91;;;19.81;66.38
48774;BME280;34576;0.000;0.000;2023-05-10T11:29:17;96410.06;;;19.76;66.62
48774;BME280;34576;0.000;0.000;2023-05-10T11:36:19;96406.28;;;19.82;66.41
48774;BME280;34576;0.000;0.000;2023-05-10T11:43:22;96384.03;;;19.87;66.30
48774;BME280;34576;0.000;0.000;2023-05-10T11:50:23;96390.16;;;19.88;66.42
48774;BME280;34576;0.000;0.000;2023-05-10T11:57:25;96401.28;;;19.76;66.88
48774;BME280;34576;0.000;0.000;2023-05-10T12:04:26;96405.13;;;19.70;66.98
48774;BME280;34576;0.000;0.000;2023-05-10T12:11:29;96398.56;;;19.81;66.58
48774;BME280;34576;0.000;0.000;2023-05-10T12:18:29;96391.25;;;19.87;66.61
48774;BME280;34576;0.000;0.000;2023-05-10T12:25:30;96386.28;;;19.80;66.88
48774;BME280;34576;0.000;0.000;2023-05-10T12:32:40;96383.25;;;19.87;66.43
48774;BME280;34576;0.000;0.000;2023-05-10T12:39:44;96378.56;;;19.78;67.22
48774;BME280;34576;0.000;0.000;2023-05-10T12:46:46;96385.34;;;19.71;68.37
48774;BME280;34576;0.000;0.000;2023-05-10T12:53:46;96399.88;;;19.64;68.79
48774;BME280;34576;0.000;0.000;2023-05-10T13:00:47;96417.97;;;19.67;69.19
48774;BME280;34576;0.000;0.000;2023-05-10T13:07:48;96416.72;;;19.79;69.01
48774;BME280;34576;0.000;0.000;2023-05-10T13:14:48;96424.75;;;19.79;69.16
48774;BME280;34576;0.000;0.000;2023-05-10T13:21:48;96425.06;;;19.72;69.29
48774;BME280;34576;0.000;0.000;2023-05-10T13:28:49;96430.13;;;19.74;69.48
48774;BME280;34576;0.000;0.000;2023-05-10T13:35:51;96431.81;;;19.70;69.71
48774;BME280;34576;0.000;0.000;2023-05-10T13:42:51;96428.03;;;19.71;69.75
48774;BME280;34576;0.000;0.000;2023-05-10T13:49:53;96422.34;;;19.77;69.68
48774;BME280;34576;0.000;0.000;2023-05-10T13:56:53;96410.50;;;19.83;69.50
48774;BME280;34576;0.000;0.000;2023-05-10T14:03:54;96392.13;;;19.82;69.50
48774;BME280;34576;0.000;0.000;2023-05-10T14:10:54;96405.31;;;19.73;69.71
48774;BME280;34576;0.000;0.000;2023-05-10T14:17:56;96408.88;;;19.69;69.82
48774;BME280;34576;0.000;0.000;2023-05-10T14:24:56;96410.47;;;19.70;69.82
48774;BME280;34576;0.000;0.000;2023-05-10T14:31:57;96413.31;;;19.73;69.64
48774;BME280;34576;0.000;0.000;2023-05-10T14:38:57;96419.44;;;19.74;69.70
48774;BME280;34576;0.000;0.000;2023-05-10T14:45:58;96416.28;;;19.72;69.71
48774;BME280;34576;0.000;0.000;2023-05-10T14:52:58;96399.19;;;19.73;69.57
48774;BME280;34576;0.000;0.000;2023-05-10T14:59:59;96403.91;;;19.81;69.56
48774;BME280;34576;0.000;0.000;2023-05-10T15:06:59;96413.47;;;19.82;69.28
48774;BME280;34576;0.000;0.000;2023-05-10T15:14:00;96394.06;;;19.76;69.45
48774;BME280;34576;0.000;0.000;2023-05-10T15:21:01;96399.69;;;19.75;69.59
48774;BME280;34576;0.000;0.000;2023-05-10T15:28:02;96401.06;;;19.72;69.71
48774;BME280;34576;0.000;0.000;2023-05-10T15:35:02;96399.53;;;19.52;60.31
48774;BME280;34576;0.000;0.000;2023-05-10T15:42:03;96397.59;;;19.72;61.60
48774;BME280;34576;0.000;0.000;2023-05-10T15:49:04;96405.41;;;19.68;65.03
48774;BME280;34576;0.000;0.000;2023-05-10T15:56:05;96403.84;;;19.67;65.65
48774;BME280;34576;0.000;0.000;2023-05-10T16:03:06;96409.88;;;19.73;65.96
48774;BME280;34576;0.000;0.000;2023-05-10T16:10:08;96413.22;;;19.64;66.23
48774;BME280;34576;0.000;0.000;2023-05-10T16:17:08;96411.03;;;19.66;66.32
48774;BME280;34576;0.000;0.000;2023-05-10T16:24:08;96400.94;;;19.63;66.55
48774;BME280;34576;0.000;0.000;2023-05-10T16:31:09;96409.03;;;19.58;66.30
48774;BME280;34576;0.000;0.000;2023-05-10T16:38:09;96410.63;;;19.59;66.09
48774;BME280;34576;0.000;0.000;2023-05-10T16:45:10;96420.78;;;19.57;66.03
48774;BME280;34576;0.000;0.000;2023-05-10T16:52:10;96413.56;;;19.58;66.35
48774;BME280;34576;0.000;0.000;2023-05-10T16:59:11;96424.53;;;19.56;66.28
48774;BME280;34576;0.000;0.000;2023-05-10T17:06:11;96439.75;;;19.56;64.44
48774;BME280;34576;0.000;0.000;2023-05-10T17:13:13;96435.31;;;19.13;62.80
48774;BME280;34576;0.000;0.000;2023-05-10T17:20:13;96445.91;;;19.18;63.12
48774;BME280;34576;0.000;0.000;2023-05-10T17:27:13;96450.38;;;19.04;61.94
48774;BME280;34576;0.000;0.000;2023-05-10T17:34:14;96446.63;;;19.05;62.77
48774;BME280;34576;0.000;0.000;2023-05-10T17:41:14;96451.69;;;18.82;60.23
48774;BME280;34576;0.000;0.000;2023-05-10T17:48:15;96441.06;;;18.58;58.49
48774;BME280;34576;0.000;0.000;2023-05-10T17:55:15;96442.94;;;18.57;59.36
48774;BME280;34576;0.000;0.000;2023-05-10T18:02:15;96451.28;;;18.70;60.00
48774;BME280;34576;0.000;0.000;2023-05-10T18:09:16;96451.25;;;18.51;59.04
48774;BME280;34576;0.000;0.000;2023-05-10T18:16:16;96455.81;;;18.50;60.40
48774;BME280;34576;0.000;0.000;2023-05-10T18:23:17;96456.38;;;18.47;58.77
48774;BME280;34576;0.000;0.000;2023-05-10T18:30:17;96457.03;;;18.34;57.62
48774;BME280;34576;0.000;0.000;2023-05-10T18:37:18;96469.44;;;18.19;56.75
48774;BME280;34576;0.000;0.000;2023-05-10T18:44:18;96473.81;;;18.05;56.26
48774;BME280;34576;0.000;0.000;2023-05-10T18:51:20;96474.25;;;18.17;56.73
48774;BME280;34576;0.000;0.000;2023-05-10T18:58:26;96493.94;;;18.16;57.29
48774;BME280;34576;0.000;0.000;2023-05-10T19:05:26;96485.13;;;18.21;57.93
48774;BME280;34576;0.000;0.000;2023-05-10T19:12:29;96494.25;;;18.15;57.97
48774;BME280;34576;0.000;0.000;2023-05-10T19:19:29;96503.84;;;18.10;57.38
48774;BME280;34576;0.000;0.000;2023-05-10T19:26:29;96511.06;;;18.10;57.45
48774;BME280;34576;0.000;0.000;2023-05-10T19:33:30;96509.72;;;18.37;57.87
48774;BME280;34576;0.000;0.000;2023-05-10T19:40:30;96512.22;;;18.52;59.70
48774;BME280;34576;0.000;0.000;2023-05-10T19:47:31;96521.50;;;18.60;60.92
48774;BME280;34576;0.000;0.000;2023-05-10T19:54:31;96515.59;;;18.63;61.63
48774;BME280;34576;0.000;0.000;2023-05-10T20:01:31;96507.81;;;18.67;62.10
48774;BME280;34576;0.000;0.000;2023-05-10T20:08:32;96513.16;;;18.67;62.71
48774;BME280;34576;0.000;0.000;2023-05-10T20:15:32;96505.09;;;18.72;63.12
48774;BME280;34576;0.000;0.000;2023-05-10T20:22:33;96517.34;;;18.73;63.32
48774;BME280;34576;0.000;0.000;2023-05-10T20:29:33;96522.63;;;18.78;63.75
48774;BME280;34576;0.000;0.000;2023-05-10T20:36:34;96517.00;;;18.79;63.73
48774;BME280;34576;0.000;0.000;2023-05-10T20:43:34;96524.44;;;18.83;64.32
48774;BME280;34576;0.000;0.000;2023-05-10T20:50:34;96516.94;;;18.85;64.71
48774;BME280;34576;0.000;0.000;2023-05-10T20:57:34;96512.41;;;18.85;65.38
48774;BME280;34576;0.000;0.000;2023-05-10T21:04:35;96517.47;;;18.87;65.90
48774;BME280;34576;0.000;0.000;2023-05-10T21:11:36;96513.47;;;18.89;66.09
48774;BME280;34576;0.000;0.000;2023-05-10T21:18:37;96518.78;;;18.89;66.41
48774;BME280;34576;0.000;0.000;2023-05-10T21:25:38;96505.97;;;18.91;66.49
48774;BME280;34576;0.000;0.000;2023-05-10T21:32:38;96508.66;;;18.91;66.66
48774;BME280;34576;0.000;0.000;2023-05-10T21:39:38;96510.75;;;18.94;66.70
48774;BME280;34576;0.000;0.000;2023-05-10T21:46:38;96504.34;;;18.95;66.79
48774;BME280;34576;0.000;0.000;2023-05-10T21:53:39;96500.00;;;19.00;66.75
48774;BME280;34576;0.000;0.000;2023-05-10T22:00:39;96505.91;;;18.96;66.94
48774;BME280;34576;0.000;0.000;2023-05-10T22:07:39;96510.44;;;18.96;67.23
48774;BME280;34576;0.000;0.000;2023-05-10T22:14:40;96515.50;;;18.97;67.06
48774;BME280;34576;0.000;0.000;2023-05-10T22:21:40;96507.50;;;18.97;67.29
48774;BME280;34576;0.000;0.000;2023-05-10T22:28:40;96506.94;;;19.01;67.15
48774;BME280;34576;0.000;0.000;2023-05-10T22:35:41;96520.25;;;19.01;67.47
48774;BME280;34576;0.000;0.000;2023-05-10T22:42:41;96518.66;;;19.00;67.66
48774;BME280;34576;0.000;0.000;2023-05-10T22:49:41;96512.25;;;19.01;67.62
48774;BME280;34576;0.000;0.000;2023-05-10T22:56:41;96514.13;;;19.00;67.66
48774;BME280;34576;0.000;0.000;2023-05-10T23:03:42;96508.53;;;19.02;67.70
48774;BME280;34576;0.000;0.000;2023-05-10T23:10:42;96512.78;;;19.03;67.93
48774;BME280;34576;0.000;0.000;2023-05-10T23:17:42;96504.25;;;19.01;68.00
48774;BME280;34576;0.000;0.000;2023-05-10T23:24:43;96507.50;;;18.97;68.14
48774;BME280;34576;0.000;0.000;2023-05-10T23:31:43;96510.31;;;19.06;67.97
48774;BME280;34576;0.000;0.000;2023-05-10T23:38:44;96513.84;;;19.02;68.21
48774;BME280;34576;0.000;0.000;2023-05-10T23:45:54;96501.00;;;19.04;68.08
48774;BME280;34576;0.000;0.000;2023-05-10T23:52:55;96505.56;;;19.03;68.29
48774;BME280;34576;0.000;0.000;2023-05-10T23:59:55;96505.84;;;19.02;68.31
